sensor_id;sensor_type;location;lat;lon;timestamp;P1;durP1;ratioP1;P2;durP2;ratioP2
13795;SDS011;40911;51.552;9.874;2023-10-19T00:00:05;17.95;;;12.60;;
13795;SDS011;40911;51.552;9.874;2023-10-19T00:02:40;16.60;;;12.15;;
13795;SDS011;40911;51.552;9.874;2023-10-19T00:05:01;19.87;;;12.33;;
13795;SDS011;40911;51.552;9.874;2023-10-19T00:07:23;18.85;;;12.60;;
13795;SDS011;40911;51.552;9.874;2023-10-19T00:09:44;21.73;;;12.50;;
13795;SDS011;40911;51.552;9.874;2023-10-19T00:12:12;20.88;;;12.60;;
13795;SDS011;40911;51.552;9.874;2023-10-19T00:14:36;21.85;;;12.32;;
13795;SDS011;40911;51.552;9.874;2023-10-19T00:19:25;20.40;;;12.25;;
13795;SDS011;40911;51.552;9.874;2023-10-19T00:21:48;24.05;;;13.23;;
13795;SDS011;40911;51.552;9.874;2023-10-19T00:24:10;20.10;;;13.13;;
13795;SDS011;40911;51.552;9.874;2023-10-19T00:26:37;20.75;;;13.18;;
13795;SDS011;40911;51.552;9.874;2023-10-19T00:28:57;20.63;;;13.23;;
13795;SDS011;40911;51.552;9.874;2023-10-19T00:31:26;18.88;;;12.82;;
13795;SDS011;40911;51.552;9.874;2023-10-19T00:33:49;21.45;;;13.73;;
13795;SDS011;40911;51.552;9.874;2023-10-19T00:36:12;19.40;;;12.40;;
13795;SDS011;40911;51.552;9.874;2023-10-19T00:38:34;20.20;;;12.95;;
13795;SDS011;40911;51.552;9.874;2023-10-19T00:41:08;23.45;;;13.25;;
13795;SDS011;40911;51.552;9.874;2023-10-19T00:43:40;22.05;;;12.98;;
13795;SDS011;40911;51.552;9.874;2023-10-19T00:46:04;21.23;;;12.88;;
13795;SDS011;40911;51.552;9.874;2023-10-19T00:48:30;22.50;;;14.05;;
13795;SDS011;40911;51.552;9.874;2023-10-19T00:50:56;24.13;;;14.25;;
13795;SDS011;40911;51.552;9.874;2023-10-19T00:53:27;21.23;;;13.65;;
13795;SDS011;40911;51.552;9.874;2023-10-19T00:55:49;23.25;;;14.57;;
13795;SDS011;40911;51.552;9.874;2023-10-19T00:58:12;24.10;;;14.20;;
13795;SDS011;40911;51.552;9.874;2023-10-19T01:00:38;22.58;;;13.98;;
13795;SDS011;40911;51.552;9.874;2023-10-19T01:03:04;23.10;;;14.00;;
13795;SDS011;40911;51.552;9.874;2023-10-19T01:05:29;23.73;;;14.32;;
13795;SDS011;40911;51.552;9.874;2023-10-19T01:07:57;22.63;;;14.10;;
13795;SDS011;40911;51.552;9.874;2023-10-19T01:10:22;21.48;;;14.77;;
13795;SDS011;40911;51.552;9.874;2023-10-19T01:12:45;25.08;;;14.63;;
13795;SDS011;40911;51.552;9.874;2023-10-19T01:15:08;25.27;;;15.43;;
13795;SDS011;40911;51.552;9.874;2023-10-19T01:17:36;21.75;;;14.35;;
13795;SDS011;40911;51.552;9.874;2023-10-19T01:20:04;24.10;;;15.48;;
13795;SDS011;40911;51.552;9.874;2023-10-19T01:25:06;22.60;;;14.70;;
13795;SDS011;40911;51.552;9.874;2023-10-19T01:27:30;27.02;;;16.88;;
13795;SDS011;40911;51.552;9.874;2023-10-19T01:29:52;25.25;;;15.02;;
13795;SDS011;40911;51.552;9.874;2023-10-19T01:32:20;24.35;;;14.98;;
13795;SDS011;40911;51.552;9.874;2023-10-19T01:34:43;23.77;;;16.00;;
13795;SDS011;40911;51.552;9.874;2023-10-19T01:37:05;29.73;;;16.45;;
13795;SDS011;40911;51.552;9.874;2023-10-19T01:39:27;24.10;;;15.03;;
13795;SDS011;40911;51.552;9.874;2023-10-19T01:41:48;25.88;;;16.88;;
13795;SDS011;40911;51.552;9.874;2023-10-19T01:44:11;29.90;;;17.20;;
13795;SDS011;40911;51.552;9.874;2023-10-19T01:46:35;28.80;;;17.00;;
13795;SDS011;40911;51.552;9.874;2023-10-19T01:48:56;26.13;;;16.52;;
13795;SDS011;40911;51.552;9.874;2023-10-19T01:53:39;28.67;;;15.80;;
13795;SDS011;40911;51.552;9.874;2023-10-19T01:56:05;29.40;;;17.70;;
13795;SDS011;40911;51.552;9.874;2023-10-19T01:58:29;29.02;;;16.92;;
13795;SDS011;40911;51.552;9.874;2023-10-19T02:03:15;28.80;;;17.25;;
13795;SDS011;40911;51.552;9.874;2023-10-19T02:05:38;28.48;;;17.05;;
13795;SDS011;40911;51.552;9.874;2023-10-19T02:08:01;29.73;;;17.42;;
13795;SDS011;40911;51.552;9.874;2023-10-19T02:10:24;31.73;;;16.92;;
13795;SDS011;40911;51.552;9.874;2023-10-19T02:12:48;29.10;;;18.35;;
13795;SDS011;40911;51.552;9.874;2023-10-19T02:15:15;33.58;;;18.70;;
13795;SDS011;40911;51.552;9.874;2023-10-19T02:17:36;32.73;;;19.10;;
13795;SDS011;40911;51.552;9.874;2023-10-19T02:19:59;32.80;;;18.70;;
13795;SDS011;40911;51.552;9.874;2023-10-19T02:22:21;31.75;;;19.38;;
13795;SDS011;40911;51.552;9.874;2023-10-19T02:24:43;30.05;;;18.05;;
13795;SDS011;40911;51.552;9.874;2023-10-19T02:27:04;30.37;;;18.97;;
13795;SDS011;40911;51.552;9.874;2023-10-19T02:29:27;33.97;;;18.88;;
13795;SDS011;40911;51.552;9.874;2023-10-19T02:31:48;32.20;;;18.73;;
13795;SDS011;40911;51.552;9.874;2023-10-19T02:34:11;32.08;;;19.40;;
13795;SDS011;40911;51.552;9.874;2023-10-19T02:36:35;28.98;;;18.15;;
13795;SDS011;40911;51.552;9.874;2023-10-19T02:38:57;31.15;;;19.48;;
13795;SDS011;40911;51.552;9.874;2023-10-19T02:41:19;33.10;;;19.00;;
13795;SDS011;40911;51.552;9.874;2023-10-19T02:43:41;29.13;;;18.98;;
13795;SDS011;40911;51.552;9.874;2023-10-19T02:46:07;31.35;;;18.88;;
13795;SDS011;40911;51.552;9.874;2023-10-19T02:48:30;31.48;;;18.50;;
13795;SDS011;40911;51.552;9.874;2023-10-19T02:50:51;30.60;;;19.13;;
13795;SDS011;40911;51.552;9.874;2023-10-19T02:53:13;30.38;;;18.20;;
13795;SDS011;40911;51.552;9.874;2023-10-19T02:55:38;31.75;;;18.75;;
13795;SDS011;40911;51.552;9.874;2023-10-19T03:00:25;30.88;;;16.92;;
13795;SDS011;40911;51.552;9.874;2023-10-19T03:02:54;32.58;;;17.83;;
13795;SDS011;40911;51.552;9.874;2023-10-19T03:05:16;27.90;;;17.70;;
13795;SDS011;40911;51.552;9.874;2023-10-19T03:07:37;33.88;;;17.80;;
13795;SDS011;40911;51.552;9.874;2023-10-19T03:09:59;33.50;;;17.48;;
13795;SDS011;40911;51.552;9.874;2023-10-19T03:12:22;29.42;;;18.40;;
13795;SDS011;40911;51.552;9.874;2023-10-19T03:14:46;30.02;;;17.95;;
13795;SDS011;40911;51.552;9.874;2023-10-19T03:21:53;26.48;;;16.45;;
13795;SDS011;40911;51.552;9.874;2023-10-19T03:24:20;29.15;;;17.25;;
13795;SDS011;40911;51.552;9.874;2023-10-19T03:26:55;27.35;;;17.35;;
13795;SDS011;40911;51.552;9.874;2023-10-19T03:29:20;26.40;;;16.73;;
13795;SDS011;40911;51.552;9.874;2023-10-19T03:31:45;25.35;;;16.67;;
13795;SDS011;40911;51.552;9.874;2023-10-19T03:36:31;26.38;;;16.23;;
13795;SDS011;40911;51.552;9.874;2023-10-19T03:38:53;24.20;;;15.80;;
13795;SDS011;40911;51.552;9.874;2023-10-19T03:41:16;23.42;;;15.40;;
13795;SDS011;40911;51.552;9.874;2023-10-19T03:43:41;25.00;;;16.27;;
13795;SDS011;40911;51.552;9.874;2023-10-19T03:46:04;25.27;;;16.40;;
13795;SDS011;40911;51.552;9.874;2023-10-19T03:48:34;26.15;;;16.33;;
13795;SDS011;40911;51.552;9.874;2023-10-19T03:50:58;24.13;;;15.30;;
13795;SDS011;40911;51.552;9.874;2023-10-19T03:53:24;28.17;;;17.38;;
13795;SDS011;40911;51.552;9.874;2023-10-19T03:55:45;26.10;;;15.70;;
13795;SDS011;40911;51.552;9.874;2023-10-19T03:58:07;25.08;;;15.98;;
13795;SDS011;40911;51.552;9.874;2023-10-19T04:00:32;25.50;;;16.08;;
13795;SDS011;40911;51.552;9.874;2023-10-19T04:02:54;26.90;;;16.00;;
13795;SDS011;40911;51.552;9.874;2023-10-19T04:05:18;22.48;;;15.50;;
13795;SDS011;40911;51.552;9.874;2023-10-19T04:07:42;26.60;;;15.75;;
13795;SDS011;40911;51.552;9.874;2023-10-19T04:12:44;23.70;;;14.85;;
13795;SDS011;40911;51.552;9.874;2023-10-19T04:15:07;21.90;;;14.15;;
13795;SDS011;40911;51.552;9.874;2023-10-19T04:17:32;24.23;;;15.30;;
13795;SDS011;40911;51.552;9.874;2023-10-19T04:19:56;23.90;;;14.68;;
13795;SDS011;40911;51.552;9.874;2023-10-19T04:24:43;20.45;;;13.45;;
13795;SDS011;40911;51.552;9.874;2023-10-19T04:29:28;19.92;;;13.25;;
13795;SDS011;40911;51.552;9.874;2023-10-19T04:31:51;20.08;;;12.85;;
13795;SDS011;40911;51.552;9.874;2023-10-19T04:34:14;19.35;;;12.80;;
13795;SDS011;40911;51.552;9.874;2023-10-19T04:36:40;19.10;;;12.70;;
13795;SDS011;40911;51.552;9.874;2023-10-19T04:39:03;21.33;;;11.82;;
13795;SDS011;40911;51.552;9.874;2023-10-19T04:41:25;18.85;;;12.88;;
13795;SDS011;40911;51.552;9.874;2023-10-19T04:43:50;18.42;;;12.63;;
13795;SDS011;40911;51.552;9.874;2023-10-19T04:46:11;18.65;;;11.70;;
13795;SDS011;40911;51.552;9.874;2023-10-19T04:53:17;14.40;;;10.20;;
13795;SDS011;40911;51.552;9.874;2023-10-19T04:55:39;17.25;;;11.27;;
13795;SDS011;40911;51.552;9.874;2023-10-19T04:58:01;15.70;;;11.18;;
13795;SDS011;40911;51.552;9.874;2023-10-19T05:00:24;15.65;;;9.95;;
13795;SDS011;40911;51.552;9.874;2023-10-19T05:02:48;14.35;;;10.20;;
13795;SDS011;40911;51.552;9.874;2023-10-19T05:05:12;13.63;;;9.45;;
13795;SDS011;40911;51.552;9.874;2023-10-19T05:07:37;12.55;;;9.10;;
13795;SDS011;40911;51.552;9.874;2023-10-19T05:09:59;14.68;;;10.25;;
13795;SDS011;40911;51.552;9.874;2023-10-19T05:14:43;12.02;;;8.70;;
13795;SDS011;40911;51.552;9.874;2023-10-19T05:17:07;11.90;;;9.30;;
13795;SDS011;40911;51.552;9.874;2023-10-19T05:19:30;14.18;;;9.57;;
13795;SDS011;40911;51.552;9.874;2023-10-19T05:21:52;14.27;;;9.65;;
13795;SDS011;40911;51.552;9.874;2023-10-19T05:24:14;13.75;;;8.98;;
13795;SDS011;40911;51.552;9.874;2023-10-19T05:26:35;11.52;;;8.77;;
13795;SDS011;40911;51.552;9.874;2023-10-19T05:31:19;10.30;;;8.07;;
13795;SDS011;40911;51.552;9.874;2023-10-19T05:36:04;11.48;;;8.70;;
13795;SDS011;40911;51.552;9.874;2023-10-19T05:38:26;11.77;;;8.45;;
13795;SDS011;40911;51.552;9.874;2023-10-19T05:40:48;11.70;;;8.80;;
13795;SDS011;40911;51.552;9.874;2023-10-19T05:43:12;10.88;;;8.40;;
13795;SDS011;40911;51.552;9.874;2023-10-19T05:47:56;10.57;;;8.00;;
13795;SDS011;40911;51.552;9.874;2023-10-19T05:50:20;11.13;;;8.80;;
13795;SDS011;40911;51.552;9.874;2023-10-19T05:52:42;12.63;;;9.05;;
13795;SDS011;40911;51.552;9.874;2023-10-19T05:55:04;11.63;;;8.73;;
13795;SDS011;40911;51.552;9.874;2023-10-19T05:57:27;12.32;;;8.80;;
13795;SDS011;40911;51.552;9.874;2023-10-19T06:02:10;11.52;;;8.15;;
13795;SDS011;40911;51.552;9.874;2023-10-19T06:04:32;11.82;;;8.73;;
13795;SDS011;40911;51.552;9.874;2023-10-19T06:09:17;9.20;;;7.80;;
13795;SDS011;40911;51.552;9.874;2023-10-19T06:11:39;9.65;;;8.13;;
13795;SDS011;40911;51.552;9.874;2023-10-19T06:14:03;12.27;;;8.35;;
13795;SDS011;40911;51.552;9.874;2023-10-19T06:16:27;9.27;;;8.00;;
13795;SDS011;40911;51.552;9.874;2023-10-19T06:18:49;12.35;;;8.00;;
13795;SDS011;40911;51.552;9.874;2023-10-19T06:21:11;10.32;;;7.82;;
13795;SDS011;40911;51.552;9.874;2023-10-19T06:23:34;10.60;;;7.90;;
13795;SDS011;40911;51.552;9.874;2023-10-19T06:25:57;14.40;;;8.32;;
13795;SDS011;40911;51.552;9.874;2023-10-19T06:28:20;11.07;;;8.80;;
13795;SDS011;40911;51.552;9.874;2023-10-19T06:33:04;9.57;;;8.00;;
13795;SDS011;40911;51.552;9.874;2023-10-19T06:35:26;13.70;;;8.50;;
13795;SDS011;40911;51.552;9.874;2023-10-19T06:37:48;11.52;;;8.52;;
13795;SDS011;40911;51.552;9.874;2023-10-19T06:40:12;16.92;;;10.55;;
13795;SDS011;40911;51.552;9.874;2023-10-19T06:42:36;12.93;;;8.82;;
13795;SDS011;40911;51.552;9.874;2023-10-19T06:44:58;11.65;;;8.52;;
13795;SDS011;40911;51.552;9.874;2023-10-19T06:49:42;11.10;;;8.00;;
13795;SDS011;40911;51.552;9.874;2023-10-19T06:54:26;12.52;;;7.25;;
13795;SDS011;40911;51.552;9.874;2023-10-19T06:56:50;10.57;;;7.75;;
13795;SDS011;40911;51.552;9.874;2023-10-19T06:59:12;9.85;;;7.75;;
13795;SDS011;40911;51.552;9.874;2023-10-19T07:03:56;11.45;;;7.80;;
13795;SDS011;40911;51.552;9.874;2023-10-19T07:06:18;13.55;;;8.02;;
13795;SDS011;40911;51.552;9.874;2023-10-19T07:08:42;11.60;;;8.38;;
13795;SDS011;40911;51.552;9.874;2023-10-19T07:11:03;11.25;;;7.82;;
13795;SDS011;40911;51.552;9.874;2023-10-19T07:13:27;12.30;;;8.00;;
13795;SDS011;40911;51.552;9.874;2023-10-19T07:15:53;9.40;;;7.22;;
13795;SDS011;40911;51.552;9.874;2023-10-19T07:18:15;10.80;;;8.18;;
13795;SDS011;40911;51.552;9.874;2023-10-19T07:25:23;10.35;;;7.60;;
13795;SDS011;40911;51.552;9.874;2023-10-19T07:27:46;9.68;;;7.68;;
13795;SDS011;40911;51.552;9.874;2023-10-19T07:30:10;11.25;;;8.50;;
13795;SDS011;40911;51.552;9.874;2023-10-19T07:32:35;10.70;;;7.95;;
13795;SDS011;40911;51.552;9.874;2023-10-19T07:34:58;11.82;;;7.90;;
13795;SDS011;40911;51.552;9.874;2023-10-19T07:39:44;11.80;;;7.65;;
13795;SDS011;40911;51.552;9.874;2023-10-19T07:42:06;13.70;;;7.85;;
13795;SDS011;40911;51.552;9.874;2023-10-19T07:49:13;12.43;;;8.23;;
13795;SDS011;40911;51.552;9.874;2023-10-19T07:51:35;12.88;;;8.05;;
13795;SDS011;40911;51.552;9.874;2023-10-19T07:53:57;10.65;;;8.38;;
13795;SDS011;40911;51.552;9.874;2023-10-19T07:58:41;9.85;;;7.53;;
13795;SDS011;40911;51.552;9.874;2023-10-19T08:03:27;11.30;;;7.57;;
13795;SDS011;40911;51.552;9.874;2023-10-19T08:05:49;11.88;;;7.45;;
13795;SDS011;40911;51.552;9.874;2023-10-19T08:12:55;10.88;;;7.55;;
13795;SDS011;40911;51.552;9.874;2023-10-19T08:17:40;10.18;;;7.38;;
13795;SDS011;40911;51.552;9.874;2023-10-19T08:20:05;10.80;;;8.05;;
13795;SDS011;40911;51.552;9.874;2023-10-19T08:22:29;11.18;;;8.65;;
13795;SDS011;40911;51.552;9.874;2023-10-19T08:24:51;13.07;;;8.38;;
13795;SDS011;40911;51.552;9.874;2023-10-19T08:27:14;12.68;;;8.15;;
13795;SDS011;40911;51.552;9.874;2023-10-19T08:29:37;11.15;;;7.32;;
13795;SDS011;40911;51.552;9.874;2023-10-19T08:34:20;14.57;;;9.55;;
13795;SDS011;40911;51.552;9.874;2023-10-19T08:36:45;13.57;;;8.38;;
13795;SDS011;40911;51.552;9.874;2023-10-19T08:39:09;14.30;;;8.43;;
13795;SDS011;40911;51.552;9.874;2023-10-19T08:41:33;11.10;;;8.18;;
13795;SDS011;40911;51.552;9.874;2023-10-19T08:43:57;9.95;;;7.45;;
13795;SDS011;40911;51.552;9.874;2023-10-19T08:46:20;14.73;;;8.50;;
13795;SDS011;40911;51.552;9.874;2023-10-19T08:51:05;10.70;;;7.07;;
13795;SDS011;40911;51.552;9.874;2023-10-19T08:53:32;11.30;;;7.55;;
13795;SDS011;40911;51.552;9.874;2023-10-19T08:55:59;11.95;;;7.68;;
13795;SDS011;40911;51.552;9.874;2023-10-19T08:58:24;11.27;;;7.63;;
13795;SDS011;40911;51.552;9.874;2023-10-19T09:00:48;10.98;;;8.05;;
13795;SDS011;40911;51.552;9.874;2023-10-19T09:03:14;10.65;;;7.53;;
13795;SDS011;40911;51.552;9.874;2023-10-19T09:05:37;9.77;;;7.32;;
13795;SDS011;40911;51.552;9.874;2023-10-19T09:08:00;9.65;;;7.18;;
13795;SDS011;40911;51.552;9.874;2023-10-19T09:10:27;13.15;;;8.15;;
13795;SDS011;40911;51.552;9.874;2023-10-19T09:12:58;11.77;;;8.25;;
13795;SDS011;40911;51.552;9.874;2023-10-19T09:15:22;10.68;;;7.82;;
13795;SDS011;40911;51.552;9.874;2023-10-19T09:17:46;14.25;;;8.32;;
13795;SDS011;40911;51.552;9.874;2023-10-19T09:20:09;12.65;;;8.25;;
13795;SDS011;40911;51.552;9.874;2023-10-19T09:22:34;12.25;;;8.10;;
13795;SDS011;40911;51.552;9.874;2023-10-19T09:25:04;10.10;;;7.50;;
13795;SDS011;40911;51.552;9.874;2023-10-19T09:27:29;11.02;;;7.82;;
13795;SDS011;40911;51.552;9.874;2023-10-19T09:29:51;9.95;;;7.10;;
13795;SDS011;40911;51.552;9.874;2023-10-19T09:34:35;11.15;;;8.05;;
13795;SDS011;40911;51.552;9.874;2023-10-19T09:36:58;10.15;;;7.53;;
13795;SDS011;40911;51.552;9.874;2023-10-19T09:39:20;13.52;;;7.68;;
13795;SDS011;40911;51.552;9.874;2023-10-19T09:41:44;13.43;;;7.78;;
13795;SDS011;40911;51.552;9.874;2023-10-19T09:44:09;13.75;;;8.30;;
13795;SDS011;40911;51.552;9.874;2023-10-19T09:46:33;14.48;;;8.55;;
13795;SDS011;40911;51.552;9.874;2023-10-19T09:48:59;13.13;;;7.80;;
13795;SDS011;40911;51.552;9.874;2023-10-19T09:51:21;13.48;;;8.23;;
13795;SDS011;40911;51.552;9.874;2023-10-19T09:53:47;13.75;;;7.60;;
13795;SDS011;40911;51.552;9.874;2023-10-19T09:56:15;11.73;;;7.47;;
13795;SDS011;40911;51.552;9.874;2023-10-19T09:58:44;17.83;;;8.90;;
13795;SDS011;40911;51.552;9.874;2023-10-19T10:01:09;12.35;;;7.75;;
13795;SDS011;40911;51.552;9.874;2023-10-19T10:03:42;12.45;;;7.88;;
13795;SDS011;40911;51.552;9.874;2023-10-19T10:06:08;10.90;;;7.25;;
13795;SDS011;40911;51.552;9.874;2023-10-19T10:08:31;10.88;;;7.13;;
13795;SDS011;40911;51.552;9.874;2023-10-19T10:10:54;12.05;;;7.13;;
13795;SDS011;40911;51.552;9.874;2023-10-19T10:15:56;12.48;;;6.65;;
13795;SDS011;40911;51.552;9.874;2023-10-19T10:18:21;8.52;;;6.57;;
13795;SDS011;40911;51.552;9.874;2023-10-19T10:20:46;11.60;;;7.45;;
13795;SDS011;40911;51.552;9.874;2023-10-19T10:23:18;15.70;;;8.00;;
13795;SDS011;40911;51.552;9.874;2023-10-19T10:25:45;14.02;;;7.57;;
13795;SDS011;40911;51.552;9.874;2023-10-19T10:28:12;14.38;;;7.65;;
13795;SDS011;40911;51.552;9.874;2023-10-19T10:30:35;13.20;;;7.28;;
13795;SDS011;40911;51.552;9.874;2023-10-19T10:32:57;11.38;;;6.50;;
13795;SDS011;40911;51.552;9.874;2023-10-19T10:38:16;8.00;;;5.40;;
13795;SDS011;40911;51.552;9.874;2023-10-19T10:43:06;5.50;;;4.30;;
13795;SDS011;40911;51.552;9.874;2023-10-19T10:45:28;7.53;;;4.60;;
13795;SDS011;40911;51.552;9.874;2023-10-19T10:47:51;7.30;;;4.90;;
13795;SDS011;40911;51.552;9.874;2023-10-19T10:52:41;5.30;;;4.40;;
13795;SDS011;40911;51.552;9.874;2023-10-19T10:55:06;5.05;;;4.53;;
13795;SDS011;40911;51.552;9.874;2023-10-19T10:57:31;5.10;;;4.60;;
13795;SDS011;40911;51.552;9.874;2023-10-19T11:00:03;5.57;;;4.40;;
13795;SDS011;40911;51.552;9.874;2023-10-19T11:02:27;7.25;;;4.88;;
13795;SDS011;40911;51.552;9.874;2023-10-19T11:04:49;7.35;;;5.18;;
13795;SDS011;40911;51.552;9.874;2023-10-19T11:09:44;5.32;;;4.60;;
13795;SDS011;40911;51.552;9.874;2023-10-19T11:12:10;5.75;;;4.55;;
13795;SDS011;40911;51.552;9.874;2023-10-19T11:14:32;5.55;;;4.68;;
13795;SDS011;40911;51.552;9.874;2023-10-19T11:16:54;5.57;;;4.85;;
13795;SDS011;40911;51.552;9.874;2023-10-19T11:21:38;6.97;;;4.82;;
13795;SDS011;40911;51.552;9.874;2023-10-19T11:24:12;6.30;;;4.57;;
13795;SDS011;40911;51.552;9.874;2023-10-19T11:26:47;5.10;;;4.30;;
13795;SDS011;40911;51.552;9.874;2023-10-19T11:29:09;6.65;;;5.53;;
13795;SDS011;40911;51.552;9.874;2023-10-19T11:31:37;7.50;;;5.78;;
13795;SDS011;40911;51.552;9.874;2023-10-19T11:33:59;7.15;;;5.88;;
13795;SDS011;40911;51.552;9.874;2023-10-19T11:36:22;7.53;;;5.70;;
13795;SDS011;40911;51.552;9.874;2023-10-19T11:38:45;8.45;;;6.40;;
13795;SDS011;40911;51.552;9.874;2023-10-19T11:41:08;7.75;;;6.05;;
13795;SDS011;40911;51.552;9.874;2023-10-19T11:43:31;9.48;;;7.60;;
13795;SDS011;40911;51.552;9.874;2023-10-19T11:45:54;7.35;;;6.18;;
13795;SDS011;40911;51.552;9.874;2023-10-19T11:48:16;7.95;;;5.82;;
13795;SDS011;40911;51.552;9.874;2023-10-19T11:50:38;8.85;;;5.93;;
13795;SDS011;40911;51.552;9.874;2023-10-19T11:53:00;6.30;;;5.13;;
13795;SDS011;40911;51.552;9.874;2023-10-19T11:55:23;6.97;;;5.00;;
13795;SDS011;40911;51.552;9.874;2023-10-19T11:57:45;11.50;;;5.80;;
13795;SDS011;40911;51.552;9.874;2023-10-19T12:00:09;8.32;;;5.38;;
13795;SDS011;40911;51.552;9.874;2023-10-19T12:02:35;7.57;;;5.47;;
13795;SDS011;40911;51.552;9.874;2023-10-19T12:05:04;5.85;;;5.25;;
13795;SDS011;40911;51.552;9.874;2023-10-19T12:07:30;8.90;;;6.50;;
13795;SDS011;40911;51.552;9.874;2023-10-19T12:09:54;6.97;;;5.30;;
13795;SDS011;40911;51.552;9.874;2023-10-19T12:14:37;7.13;;;5.38;;
13795;SDS011;40911;51.552;9.874;2023-10-19T12:17:02;8.80;;;5.20;;
13795;SDS011;40911;51.552;9.874;2023-10-19T12:19:26;5.65;;;4.75;;
13795;SDS011;40911;51.552;9.874;2023-10-19T12:21:49;7.82;;;5.18;;
13795;SDS011;40911;51.552;9.874;2023-10-19T12:24:12;7.05;;;5.30;;
13795;SDS011;40911;51.552;9.874;2023-10-19T12:26:35;7.28;;;5.15;;
13795;SDS011;40911;51.552;9.874;2023-10-19T12:28:58;6.82;;;5.20;;
13795;SDS011;40911;51.552;9.874;2023-10-19T12:31:20;7.22;;;4.82;;
13795;SDS011;40911;51.552;9.874;2023-10-19T12:33:44;9.57;;;6.18;;
13795;SDS011;40911;51.552;9.874;2023-10-19T12:36:06;9.10;;;6.05;;
13795;SDS011;40911;51.552;9.874;2023-10-19T12:38:44;14.60;;;8.23;;
13795;SDS011;40911;51.552;9.874;2023-10-19T12:41:07;10.60;;;6.75;;
13795;SDS011;40911;51.552;9.874;2023-10-19T12:43:29;9.77;;;6.38;;
13795;SDS011;40911;51.552;9.874;2023-10-19T12:45:51;10.82;;;6.25;;
13795;SDS011;40911;51.552;9.874;2023-10-19T12:48:13;6.63;;;5.30;;
13795;SDS011;40911;51.552;9.874;2023-10-19T12:50:37;7.68;;;5.15;;
13795;SDS011;40911;51.552;9.874;2023-10-19T12:53:01;8.55;;;4.88;;
13795;SDS011;40911;51.552;9.874;2023-10-19T12:55:23;7.53;;;5.05;;
13795;SDS011;40911;51.552;9.874;2023-10-19T12:57:47;11.15;;;5.22;;
13795;SDS011;40911;51.552;9.874;2023-10-19T13:00:11;5.88;;;4.75;;
13795;SDS011;40911;51.552;9.874;2023-10-19T13:02:46;6.03;;;4.43;;
13795;SDS011;40911;51.552;9.874;2023-10-19T13:07:31;7.93;;;4.47;;
13795;SDS011;40911;51.552;9.874;2023-10-19T13:09:54;7.65;;;4.70;;
13795;SDS011;40911;51.552;9.874;2023-10-19T13:12:18;6.78;;;4.38;;
13795;SDS011;40911;51.552;9.874;2023-10-19T13:14:43;5.18;;;4.40;;
13795;SDS011;40911;51.552;9.874;2023-10-19T13:17:05;8.50;;;5.00;;
13795;SDS011;40911;51.552;9.874;2023-10-19T13:19:27;6.13;;;4.85;;
13795;SDS011;40911;51.552;9.874;2023-10-19T13:21:49;7.90;;;5.25;;
13795;SDS011;40911;51.552;9.874;2023-10-19T13:24:12;10.15;;;4.85;;
13795;SDS011;40911;51.552;9.874;2023-10-19T13:26:35;6.78;;;4.38;;
13795;SDS011;40911;51.552;9.874;2023-10-19T13:28:58;6.28;;;5.05;;
13795;SDS011;40911;51.552;9.874;2023-10-19T13:36:05;7.47;;;4.90;;
13795;SDS011;40911;51.552;9.874;2023-10-19T13:38:27;6.63;;;4.90;;
13795;SDS011;40911;51.552;9.874;2023-10-19T13:40:51;6.82;;;4.93;;
13795;SDS011;40911;51.552;9.874;2023-10-19T13:43:13;7.20;;;4.93;;
13795;SDS011;40911;51.552;9.874;2023-10-19T13:45:36;6.72;;;5.03;;
13795;SDS011;40911;51.552;9.874;2023-10-19T13:47:59;8.77;;;5.43;;
13795;SDS011;40911;51.552;9.874;2023-10-19T13:50:23;6.68;;;4.90;;
13795;SDS011;40911;51.552;9.874;2023-10-19T13:52:46;6.18;;;5.22;;
13795;SDS011;40911;51.552;9.874;2023-10-19T13:55:08;5.72;;;5.18;;
13795;SDS011;40911;51.552;9.874;2023-10-19T13:57:34;7.13;;;5.40;;
13795;SDS011;40911;51.552;9.874;2023-10-19T13:59:56;6.40;;;5.22;;
13795;SDS011;40911;51.552;9.874;2023-10-19T14:02:18;7.35;;;5.53;;
13795;SDS011;40911;51.552;9.874;2023-10-19T14:04:40;7.32;;;5.28;;
13795;SDS011;40911;51.552;9.874;2023-10-19T14:07:01;6.82;;;5.55;;
13795;SDS011;40911;51.552;9.874;2023-10-19T14:09:24;6.43;;;5.05;;
13795;SDS011;40911;51.552;9.874;2023-10-19T14:11:46;7.55;;;5.72;;
13795;SDS011;40911;51.552;9.874;2023-10-19T14:14:10;8.88;;;5.45;;
13795;SDS011;40911;51.552;9.874;2023-10-19T14:16:32;9.38;;;6.32;;
13795;SDS011;40911;51.552;9.874;2023-10-19T14:18:55;7.47;;;5.88;;
13795;SDS011;40911;51.552;9.874;2023-10-19T14:21:17;6.95;;;5.82;;
13795;SDS011;40911;51.552;9.874;2023-10-19T14:23:40;9.07;;;5.65;;
13795;SDS011;40911;51.552;9.874;2023-10-19T14:26:02;9.50;;;5.72;;
13795;SDS011;40911;51.552;9.874;2023-10-19T14:30:47;7.25;;;5.63;;
13795;SDS011;40911;51.552;9.874;2023-10-19T14:33:10;8.00;;;6.28;;
13795;SDS011;40911;51.552;9.874;2023-10-19T14:35:32;8.05;;;6.05;;
13795;SDS011;40911;51.552;9.874;2023-10-19T14:37:56;7.75;;;5.95;;
13795;SDS011;40911;51.552;9.874;2023-10-19T14:40:19;7.97;;;5.85;;
13795;SDS011;40911;51.552;9.874;2023-10-19T14:42:43;9.23;;;6.32;;
13795;SDS011;40911;51.552;9.874;2023-10-19T14:47:30;7.30;;;5.60;;
13795;SDS011;40911;51.552;9.874;2023-10-19T14:49:53;10.75;;;7.85;;
13795;SDS011;40911;51.552;9.874;2023-10-19T14:52:15;13.43;;;9.40;;
13795;SDS011;40911;51.552;9.874;2023-10-19T14:54:37;11.85;;;9.48;;
13795;SDS011;40911;51.552;9.874;2023-10-19T15:01:42;16.63;;;10.40;;
13795;SDS011;40911;51.552;9.874;2023-10-19T15:06:27;14.30;;;9.40;;
13795;SDS011;40911;51.552;9.874;2023-10-19T15:08:51;13.50;;;10.02;;
13795;SDS011;40911;51.552;9.874;2023-10-19T15:11:16;16.00;;;9.95;;
13795;SDS011;40911;51.552;9.874;2023-10-19T15:13:40;12.60;;;9.13;;
13795;SDS011;40911;51.552;9.874;2023-10-19T15:18:28;12.55;;;9.15;;
13795;SDS011;40911;51.552;9.874;2023-10-19T15:20:51;13.38;;;9.68;;
13795;SDS011;40911;51.552;9.874;2023-10-19T15:23:13;13.40;;;9.98;;
13795;SDS011;40911;51.552;9.874;2023-10-19T15:25:36;15.00;;;9.70;;
13795;SDS011;40911;51.552;9.874;2023-10-19T15:28:00;14.55;;;10.25;;
13795;SDS011;40911;51.552;9.874;2023-10-19T15:30:22;14.20;;;9.43;;
13795;SDS011;40911;51.552;9.874;2023-10-19T15:32:44;12.80;;;10.45;;
13795;SDS011;40911;51.552;9.874;2023-10-19T15:35:07;16.58;;;10.38;;
13795;SDS011;40911;51.552;9.874;2023-10-19T15:37:33;15.65;;;10.25;;
13795;SDS011;40911;51.552;9.874;2023-10-19T15:39:55;13.05;;;10.07;;
13795;SDS011;40911;51.552;9.874;2023-10-19T15:42:17;13.68;;;10.70;;
13795;SDS011;40911;51.552;9.874;2023-10-19T15:44:41;12.82;;;9.45;;
13795;SDS011;40911;51.552;9.874;2023-10-19T15:49:31;13.32;;;9.13;;
13795;SDS011;40911;51.552;9.874;2023-10-19T15:52:07;15.65;;;10.05;;
13795;SDS011;40911;51.552;9.874;2023-10-19T15:56:52;14.02;;;9.68;;
13795;SDS011;40911;51.552;9.874;2023-10-19T15:59:14;13.75;;;10.63;;
13795;SDS011;40911;51.552;9.874;2023-10-19T16:03:57;12.55;;;9.25;;
13795;SDS011;40911;51.552;9.874;2023-10-19T16:08:41;11.93;;;9.05;;
13795;SDS011;40911;51.552;9.874;2023-10-19T16:11:04;13.57;;;9.57;;
13795;SDS011;40911;51.552;9.874;2023-10-19T16:13:27;22.85;;;14.98;;
13795;SDS011;40911;51.552;9.874;2023-10-19T16:18:11;17.83;;;12.18;;
13795;SDS011;40911;51.552;9.874;2023-10-19T16:20:32;16.48;;;10.88;;
13795;SDS011;40911;51.552;9.874;2023-10-19T16:25:17;15.52;;;9.82;;
13795;SDS011;40911;51.552;9.874;2023-10-19T16:27:41;18.35;;;13.13;;
13795;SDS011;40911;51.552;9.874;2023-10-19T16:30:03;17.20;;;12.60;;